createdAt,value
2023-01-25T00:01:36.154Z,95918.06
2023-01-25T00:04:02.950Z,95918.88
2023-01-25T00:06:29.770Z,95921.41
2023-01-25T00:08:56.477Z,95913.44
2023-01-25T00:11:23.200Z,95917.88
2023-01-25T00:13:49.922Z,95923.25
2023-01-25T00:16:16.695Z,95921.22
2023-01-25T00:18:43.423Z,95928.25
2023-01-25T00:21:22.409Z,95923.06
2023-01-25T00:23:49.906Z,95926.41
2023-01-25T00:26:16.768Z,95916.63
2023-01-25T00:28:43.757Z,95913.28
2023-01-25T00:31:22.734Z,95911.03
2023-01-25T00:34:24.963Z,95899.31
2023-01-25T00:36:55.333Z,95892.94
2023-01-25T00:39:22.063Z,95903.91
2023-01-25T00:41:48.842Z,95892.13
2023-01-25T00:44:15.635Z,95882.91
2023-01-25T00:46:42.338Z,95892.59
2023-01-25T00:49:22.251Z,95879.16
2023-01-25T00:51:50.171Z,95862.16
2023-01-25T00:54:17.651Z,95881.47
2023-01-25T00:56:44.503Z,95860.81
2023-01-25T00:59:12.723Z,95864.00
2023-01-25T01:01:41.706Z,95889.41
2023-01-25T01:04:08.898Z,95870.69
2023-01-25T01:06:37.646Z,95867.34
2023-01-25T01:09:07.518Z,95874.78
2023-01-25T01:11:34.351Z,95875.19
2023-01-25T01:14:01.147Z,95869.13
2023-01-25T01:16:28.202Z,95882.22
2023-01-25T01:18:55.019Z,95868.50
2023-01-25T01:21:22.013Z,95868.09
2023-01-25T01:23:49.093Z,95885.59
2023-01-25T01:26:19.648Z,95892.00
2023-01-25T01:28:46.862Z,95886.06
2023-01-25T01:31:18.028Z,95893.69
2023-01-25T01:33:45.085Z,95902.97
2023-01-25T01:36:16.015Z,95901.63
2023-01-25T01:38:43.596Z,95893.00
2023-01-25T01:41:11.249Z,95896.28
2023-01-25T01:43:38.564Z,95893.00
2023-01-25T01:46:11.424Z,95892.78
2023-01-25T01:48:51.134Z,95894.03
2023-01-25T01:51:55.066Z,95897.13
2023-01-25T01:54:33.683Z,95898.28
2023-01-25T01:57:20.559Z,95890.84
2023-01-25T01:59:59.103Z,95893.63
2023-01-25T02:02:27.067Z,95888.91
2023-01-25T02:04:59.073Z,95879.16
2023-01-25T02:07:39.553Z,95881.13
2023-01-25T02:10:10.308Z,95873.34
2023-01-25T02:12:37.514Z,95870.19
2023-01-25T02:15:06.611Z,95868.69
2023-01-25T02:17:39.070Z,95872.59
2023-01-25T02:20:21.421Z,95868.50
2023-01-25T02:23:24.874Z,95869.19
2023-01-25T02:25:51.566Z,95874.94
2023-01-25T02:28:39.991Z,95863.91
2023-01-25T02:31:07.262Z,95856.47
2023-01-25T02:33:34.108Z,95848.38
2023-01-25T02:36:20.316Z,95845.09
2023-01-25T02:39:01.066Z,95863.06
2023-01-25T02:41:33.547Z,95861.41
2023-01-25T02:44:04.745Z,95854.63
2023-01-25T02:46:36.219Z,95856.16
2023-01-25T02:49:04.967Z,95853.56
2023-01-25T02:51:36.408Z,95855.06
2023-01-25T02:54:06.615Z,95858.06
2023-01-25T02:56:33.751Z,95860.13
2023-01-25T02:59:05.586Z,95853.03
2023-01-25T03:01:41.092Z,95854.94
2023-01-25T03:04:09.065Z,95853.13
2023-01-25T03:06:36.552Z,95855.72
2023-01-25T03:09:05.933Z,95856.47
2023-01-25T03:11:32.687Z,95846.09
2023-01-25T03:13:59.439Z,95825.19
2023-01-25T03:16:26.254Z,95845.44
2023-01-25T03:18:54.951Z,95840.31
2023-01-25T03:21:23.275Z,95832.69
2023-01-25T03:23:58.242Z,95843.81
2023-01-25T03:26:26.941Z,95839.06
2023-01-25T03:28:53.976Z,95836.47
2023-01-25T03:31:20.848Z,95829.00
2023-01-25T03:33:47.790Z,95831.19
2023-01-25T03:36:14.629Z,95831.78
2023-01-25T03:38:41.426Z,95830.72
2023-01-25T03:41:09.400Z,95814.47
2023-01-25T03:43:36.161Z,95822.25
2023-01-25T03:46:03.290Z,95822.31
2023-01-25T03:48:30.876Z,95830.84
2023-01-25T03:50:59.367Z,95829.34
2023-01-25T03:53:32.907Z,95825.19
2023-01-25T03:56:04.665Z,95831.03
2023-01-25T03:58:31.715Z,95831.84
2023-01-25T04:01:00.998Z,95829.88
2023-01-25T04:03:31.169Z,95817.31
2023-01-25T04:05:58.826Z,95824.34
2023-01-25T04:08:26.756Z,95817.31
2023-01-25T04:10:56.391Z,95817.41
2023-01-25T04:13:24.917Z,95819.31
2023-01-25T04:15:52.315Z,95814.13
2023-01-25T04:18:20.015Z,95811.97
2023-01-25T04:20:46.847Z,95812.28
2023-01-25T04:23:14.130Z,95803.09
2023-01-25T04:25:40.986Z,95805.47
2023-01-25T04:28:07.774Z,95811.97
2023-01-25T04:30:34.475Z,95796.75
2023-01-25T04:33:05.665Z,95803.03
2023-01-25T04:35:32.999Z,95801.69
2023-01-25T04:38:00.341Z,95794.81
2023-01-25T04:40:27.479Z,95792.31
2023-01-25T04:42:54.315Z,95790.59
2023-01-25T04:45:21.582Z,95803.44
2023-01-25T04:47:49.084Z,95800.44
2023-01-25T04:50:16.373Z,95784.53
2023-01-25T04:52:43.176Z,95776.69
2023-01-25T04:55:10.415Z,95785.44
2023-01-25T04:57:37.309Z,95790.22
2023-01-25T05:00:04.777Z,95793.41
2023-01-25T05:02:31.622Z,95791.91
2023-01-25T05:04:58.485Z,95784.78
2023-01-25T05:07:25.255Z,95779.53
2023-01-25T05:09:51.983Z,95772.84
2023-01-25T05:12:18.780Z,95788.41
2023-01-25T05:14:45.645Z,95791.06
2023-01-25T05:17:12.506Z,95784.03
2023-01-25T05:19:39.277Z,95777.19
2023-01-25T05:22:07.855Z,95776.94
2023-01-25T05:24:36.239Z,95766.31
2023-01-25T05:27:04.122Z,95784.38
2023-01-25T05:29:36.803Z,95788.22
2023-01-25T05:32:07.623Z,95786.22
2023-01-25T05:34:37.005Z,95780.34
2023-01-25T05:37:06.968Z,95763.91
2023-01-25T05:39:33.955Z,95755.44
2023-01-25T05:42:01.088Z,95766.06
2023-01-25T05:44:28.456Z,95781.13
2023-01-25T05:46:55.590Z,95757.63
2023-01-25T05:49:22.320Z,95761.81
2023-01-25T05:51:49.216Z,95773.19
2023-01-25T05:54:17.897Z,95769.00
2023-01-25T05:56:44.997Z,95769.09
2023-01-25T05:59:12.855Z,95778.38
2023-01-25T06:01:40.055Z,95783.72
2023-01-25T06:04:07.237Z,95761.63
2023-01-25T06:06:34.086Z,95778.84
2023-01-25T06:09:01.854Z,95764.47
2023-01-25T06:11:28.739Z,95765.97
2023-01-25T06:13:55.503Z,95732.06
2023-01-25T06:16:22.313Z,95755.38
2023-01-25T06:18:49.382Z,95748.59
2023-01-25T06:21:16.199Z,95742.75
2023-01-25T06:23:44.994Z,95751.94
2023-01-25T06:26:14.463Z,95752.63
2023-01-25T06:28:41.701Z,95774.03
2023-01-25T06:31:21.414Z,95760.97
2023-01-25T06:33:50.776Z,95761.31
2023-01-25T06:36:20.186Z,95763.31
2023-01-25T06:38:51.506Z,95754.38
2023-01-25T06:41:19.402Z,95769.91
2023-01-25T06:43:48.011Z,95758.63
2023-01-25T06:46:15.063Z,95736.22
2023-01-25T06:48:43.195Z,95770.66
2023-01-25T06:51:13.913Z,95761.63
2023-01-25T06:53:43.923Z,95766.16
2023-01-25T06:56:21.635Z,95752.78
2023-01-25T06:58:49.776Z,95756.13
2023-01-25T07:01:27.234Z,95736.72
2023-01-25T07:03:57.048Z,95740.56
2023-01-25T07:06:26.167Z,95744.75
2023-01-25T07:08:53.161Z,95743.75
2023-01-25T07:11:20.077Z,95716.50
2023-01-25T07:13:48.831Z,95746.00
2023-01-25T07:16:19.104Z,95740.16
2023-01-25T07:18:46.026Z,95723.28
2023-01-25T07:21:21.450Z,95745.25
2023-01-25T07:23:49.862Z,95740.81
2023-01-25T07:26:25.374Z,95745.84
2023-01-25T07:28:53.386Z,95747.44
2023-01-25T07:31:21.190Z,95744.09
2023-01-25T07:33:53.590Z,95741.00
2023-01-25T07:36:20.981Z,95734.41
2023-01-25T07:38:48.245Z,95737.47
2023-01-25T07:41:16.543Z,95731.63
2023-01-25T07:43:43.801Z,95733.31
2023-01-25T07:46:13.827Z,95735.56
2023-01-25T07:48:46.512Z,95734.22
2023-01-25T07:51:22.944Z,95727.53
2023-01-25T07:54:02.279Z,95741.16
2023-01-25T07:56:32.874Z,95746.53
2023-01-25T07:59:02.881Z,95744.91
2023-01-25T08:01:32.297Z,95742.16
2023-01-25T08:03:59.136Z,95728.19
2023-01-25T08:06:35.718Z,95729.88
2023-01-25T08:09:08.906Z,95722.00
2023-01-25T08:11:35.877Z,95724.03
2023-01-25T08:14:03.317Z,95720.94
2023-01-25T08:16:32.828Z,95710.16
2023-01-25T08:19:01.240Z,95713.50
2023-01-25T08:21:31.621Z,95710.34
2023-01-25T08:24:07.154Z,95712.59
2023-01-25T08:26:35.888Z,95714.25
2023-01-25T08:29:04.213Z,95728.72
2023-01-25T08:31:34.228Z,95715.00
2023-01-25T08:34:01.884Z,95711.34
2023-01-25T08:36:28.847Z,95708.81
2023-01-25T08:39:02.894Z,95702.63
2023-01-25T08:41:31.773Z,95701.47
2023-01-25T08:43:58.885Z,95699.44
2023-01-25T08:46:31.925Z,95701.22
2023-01-25T08:48:59.824Z,95694.13
2023-01-25T08:51:27.090Z,95684.25
2023-01-25T08:53:54.648Z,95653.69
2023-01-25T08:56:21.536Z,95684.25
2023-01-25T08:58:50.695Z,95658.59
2023-01-25T09:01:19.272Z,95676.72
2023-01-25T09:03:50.676Z,95670.94
2023-01-25T09:06:19.846Z,95679.72
2023-01-25T09:08:47.369Z,95673.78
2023-01-25T09:11:19.009Z,95669.34
2023-01-25T09:13:48.529Z,95672.53
2023-01-25T09:16:20.754Z,95674.69
2023-01-25T09:18:50.546Z,95650.13
2023-01-25T09:21:19.129Z,95662.06
2023-01-25T09:23:51.578Z,95661.59
2023-01-25T09:26:32.436Z,95656.63
2023-01-25T09:28:59.446Z,95660.75
2023-01-25T09:31:28.813Z,95668.50
2023-01-25T09:33:57.256Z,95668.25
2023-01-25T09:36:23.961Z,95659.19
2023-01-25T09:38:50.747Z,95668.59
2023-01-25T09:41:50.069Z,95690.69
2023-01-25T09:44:38.568Z,95685.50
2023-01-25T09:47:43.775Z,95679.13
2023-01-25T09:51:03.228Z,95674.53
2023-01-25T09:53:39.776Z,95649.47
2023-01-25T09:56:22.628Z,95650.81
2023-01-25T09:58:53.587Z,95667.28
2023-01-25T10:01:56.053Z,95670.75
2023-01-25T10:04:42.790Z,95670.16
2023-01-25T10:07:57.318Z,95667.03
2023-01-25T10:10:44.459Z,95665.81
2023-01-25T10:13:31.953Z,95672.59
2023-01-25T10:16:24.626Z,95618.72
2023-01-25T10:19:13.734Z,95665.06
2023-01-25T10:21:50.972Z,95660.66
2023-01-25T10:24:38.909Z,95660.81
2023-01-25T10:27:27.440Z,95665.19
2023-01-25T10:29:58.028Z,95654.75
2023-01-25T10:32:35.889Z,95632.00
2023-01-25T10:35:33.310Z,95640.78
2023-01-25T10:38:12.139Z,95621.13
2023-01-25T10:41:10.149Z,95640.06
2023-01-25T10:43:36.931Z,95637.47
2023-01-25T10:46:03.841Z,95639.81
2023-01-25T10:48:35.995Z,95647.31
2023-01-25T10:51:02.992Z,95644.59
2023-01-25T10:53:43.511Z,95636.63
2023-01-25T10:56:24.638Z,95634.41
2023-01-25T10:59:06.972Z,95637.16
2023-01-25T11:01:37.305Z,95626.16
2023-01-25T11:04:25.330Z,95634.97
2023-01-25T11:06:52.659Z,95618.41
2023-01-25T11:09:21.960Z,95619.59
2023-01-25T11:12:02.664Z,95604.78
2023-01-25T11:14:32.615Z,95621.66
2023-01-25T11:17:02.008Z,95595.03
2023-01-25T11:19:39.964Z,95603.00
2023-01-25T11:22:21.863Z,95614.88
2023-01-25T11:24:48.704Z,95602.25
2023-01-25T11:27:27.242Z,95594.38
2023-01-25T11:30:07.357Z,95590.16
2023-01-25T11:32:34.440Z,95592.28
2023-01-25T11:35:01.419Z,95571.28
2023-01-25T11:37:51.847Z,95585.25
2023-01-25T11:40:38.949Z,95576.00
2023-01-25T11:43:32.467Z,95563.78
2023-01-25T11:46:20.422Z,95547.56
2023-01-25T11:49:35.396Z,95570.06
2023-01-25T11:52:45.505Z,95555.97
2023-01-25T11:55:27.337Z,95543.75
2023-01-25T11:58:32.287Z,95542.72
2023-01-25T12:01:20.283Z,95527.53
2023-01-25T12:04:17.895Z,95538.34
2023-01-25T12:07:29.231Z,95513.75
2023-01-25T12:10:22.009Z,95532.81
2023-01-25T12:12:58.298Z,95537.16
2023-01-25T12:16:00.879Z,95512.53
2023-01-25T12:19:14.359Z,95531.25
2023-01-25T12:21:41.039Z,95524.94
2023-01-25T12:24:20.178Z,95518.19
2023-01-25T12:27:08.940Z,95514.28
2023-01-25T12:30:04.227Z,95509.31
2023-01-25T12:32:41.619Z,95505.97
2023-01-25T12:35:20.088Z,95491.88
2023-01-25T12:37:49.704Z,95482.81
2023-01-25T12:40:24.048Z,95479.47
2023-01-25T12:42:58.843Z,95460.31
2023-01-25T12:45:30.868Z,95473.38
2023-01-25T12:48:03.648Z,95469.09
2023-01-25T12:50:53.596Z,95459.09
2023-01-25T12:53:25.316Z,95446.13
2023-01-25T12:55:53.372Z,95442.72
2023-01-25T12:58:37.866Z,95448.91
2023-01-25T13:01:28.209Z,95443.72
2023-01-25T13:04:25.383Z,95447.53
2023-01-25T13:06:52.087Z,95455.09
2023-01-25T13:09:51.678Z,95443.53
2023-01-25T13:12:18.603Z,95429.00
2023-01-25T13:14:45.402Z,95429.06
2023-01-25T13:17:23.458Z,95446.94
2023-01-25T13:19:53.520Z,95431.13
2023-01-25T13:22:59.653Z,95424.09
2023-01-25T13:25:27.530Z,95422.63
2023-01-25T13:28:43.391Z,95435.94
2023-01-25T13:31:10.432Z,95416.97
2023-01-25T13:33:37.686Z,95405.94
2023-01-25T13:36:42.172Z,95433.63
2023-01-25T13:39:32.915Z,95424.09
2023-01-25T13:42:11.881Z,95422.75
2023-01-25T13:44:45.502Z,95412.03
2023-01-25T13:47:16.905Z,95421.50
2023-01-25T13:50:11.462Z,95418.66
2023-01-25T13:52:38.392Z,95402.53
2023-01-25T13:55:18.346Z,95389.56
2023-01-25T13:57:45.104Z,95388.00
2023-01-25T14:00:17.085Z,95385.03
2023-01-25T14:02:54.941Z,95422.69
2023-01-25T14:05:25.239Z,95400.88
2023-01-25T14:07:55.887Z,95391.19
2023-01-25T14:10:26.576Z,95403.19
2023-01-25T14:12:59.588Z,95405.78
2023-01-25T14:15:32.084Z,95408.75
2023-01-25T14:18:19.533Z,95408.75
2023-01-25T14:20:49.447Z,95415.44
2023-01-25T14:23:30.620Z,95414.78
2023-01-25T14:25:59.779Z,95395.31
2023-01-25T14:28:27.338Z,95402.72
2023-01-25T14:30:57.674Z,95389.88
2023-01-25T14:33:44.522Z,95372.31
2023-01-25T14:36:24.346Z,95397.00
2023-01-25T14:38:52.933Z,95368.03
2023-01-25T14:41:38.862Z,95406.34
2023-01-25T14:44:14.953Z,95384.03
2023-01-25T14:46:42.823Z,95382.56
2023-01-25T14:49:15.225Z,95394.22
2023-01-25T14:51:49.533Z,95381.28
2023-01-25T14:54:24.369Z,95379.13
2023-01-25T14:56:56.517Z,95380.81
2023-01-25T14:59:38.403Z,95381.00
2023-01-25T15:02:25.388Z,95387.09
2023-01-25T15:05:14.995Z,95374.22
2023-01-25T15:08:24.911Z,95375.41
2023-01-25T15:10:57.765Z,95341.94
2023-01-25T15:13:26.448Z,95376.09
2023-01-25T15:16:00.041Z,95382.00
2023-01-25T15:18:53.503Z,95366.75
2023-01-25T15:21:46.370Z,95379.97
2023-01-25T15:24:13.294Z,95364.63
2023-01-25T15:26:40.266Z,95354.25
2023-01-25T15:29:16.519Z,95360.47
2023-01-25T15:31:43.871Z,95332.31
2023-01-25T15:34:17.310Z,95345.63
2023-01-25T15:36:44.316Z,95320.31
2023-01-25T15:39:16.869Z,95345.47
2023-01-25T15:41:44.519Z,95350.09
2023-01-25T15:44:11.747Z,95336.03
2023-01-25T15:46:42.086Z,95337.69
2023-01-25T15:49:17.649Z,95318.25
2023-01-25T15:51:44.725Z,95338.34
2023-01-25T15:54:11.461Z,95305.53
2023-01-25T15:56:42.088Z,95335.75
2023-01-25T15:59:16.798Z,95309.13
2023-01-25T16:01:43.738Z,95330.09
2023-01-25T16:04:13.664Z,95324.75
2023-01-25T16:06:58.828Z,95306.25
2023-01-25T16:09:29.991Z,95307.00
2023-01-25T16:12:01.694Z,95309.19
2023-01-25T16:14:31.455Z,95314.75
2023-01-25T16:17:03.161Z,95287.00
2023-01-25T16:19:30.181Z,95311.81
2023-01-25T16:21:57.975Z,95304.22
2023-01-25T16:24:24.994Z,95289.44
2023-01-25T16:26:57.484Z,95291.47
2023-01-25T16:29:25.451Z,95304.78
2023-01-25T16:31:53.478Z,95262.78
2023-01-25T16:34:21.205Z,95291.09
2023-01-25T16:36:50.518Z,95268.81
2023-01-25T16:39:23.609Z,95292.28
2023-01-25T16:41:50.717Z,95270.19
2023-01-25T16:44:18.161Z,95293.22
2023-01-25T16:46:45.499Z,95292.38
2023-01-25T16:49:26.452Z,95260.66
2023-01-25T16:51:54.833Z,95271.66
2023-01-25T16:54:22.334Z,95281.38
2023-01-25T16:56:50.417Z,95234.31
2023-01-25T16:59:20.892Z,95254.66
2023-01-25T17:01:48.797Z,95286.75
2023-01-25T17:04:16.203Z,95254.84
2023-01-25T17:06:47.807Z,95253.63
2023-01-25T17:09:24.980Z,95255.19
2023-01-25T17:11:54.055Z,95233.03
2023-01-25T17:14:21.977Z,95236.09
2023-01-25T17:16:51.653Z,95277.97
2023-01-25T17:19:19.647Z,95251.63
2023-01-25T17:21:46.687Z,95273.13
2023-01-25T17:24:17.365Z,95260.94
2023-01-25T17:26:44.311Z,95268.88
2023-01-25T17:29:12.294Z,95253.56
2023-01-25T17:31:39.868Z,95258.81
2023-01-25T17:34:08.505Z,95246.34
2023-01-25T17:36:35.520Z,95248.75
2023-01-25T17:39:05.132Z,95245.59
2023-01-25T17:41:32.097Z,95246.91
2023-01-25T17:43:59.077Z,95225.34
2023-01-25T17:46:30.186Z,95211.69
2023-01-25T17:48:58.023Z,95238.78
2023-01-25T17:51:25.673Z,95214.81
2023-01-25T17:53:53.601Z,95227.22
2023-01-25T17:56:20.900Z,95221.28
2023-01-25T17:58:47.836Z,95219.72
2023-01-25T18:01:26.511Z,95231.19
2023-01-25T18:03:54.957Z,95228.59
2023-01-25T18:06:25.916Z,95192.84
2023-01-25T18:08:56.896Z,95214.91
2023-01-25T18:11:27.374Z,95210.03
2023-01-25T18:13:57.129Z,95211.59
2023-01-25T18:16:26.840Z,95217.31
2023-01-25T18:18:56.440Z,95224.81
2023-01-25T18:21:27.402Z,95221.75
2023-01-25T18:24:01.196Z,95194.00
2023-01-25T18:26:31.421Z,95214.81
2023-01-25T18:29:03.747Z,95221.38
2023-01-25T18:31:30.677Z,95194.94
2023-01-25T18:33:58.340Z,95202.72
2023-01-25T18:36:25.383Z,95199.03
2023-01-25T18:38:52.395Z,95192.44
2023-01-25T18:41:19.459Z,95172.22
2023-01-25T18:43:50.067Z,95139.31
2023-01-25T18:46:17.096Z,95165.75
2023-01-25T18:48:47.140Z,95174.25
2023-01-25T18:51:17.795Z,95180.50
2023-01-25T18:53:47.664Z,95177.47
2023-01-25T18:56:17.744Z,95150.78
2023-01-25T18:58:45.488Z,95158.00
2023-01-25T19:01:19.582Z,95173.31
2023-01-25T19:03:47.499Z,95135.28
2023-01-25T19:06:15.301Z,95156.72
2023-01-25T19:08:44.357Z,95124.09
2023-01-25T19:11:14.906Z,95170.72
2023-01-25T19:13:43.449Z,95155.31
2023-01-25T19:16:21.282Z,95153.75
2023-01-25T19:18:52.190Z,95144.13
2023-01-25T19:21:27.268Z,95137.47
2023-01-25T19:23:56.161Z,95140.63
2023-01-25T19:26:25.184Z,95146.97
2023-01-25T19:28:53.269Z,95147.31
2023-01-25T19:31:24.796Z,95133.59
2023-01-25T19:33:58.114Z,95140.44
2023-01-25T19:36:24.928Z,95107.84
2023-01-25T19:38:51.900Z,95138.22
2023-01-25T19:41:22.748Z,95146.16
2023-01-25T19:43:55.723Z,95135.38
2023-01-25T19:46:26.913Z,95139.69
2023-01-25T19:48:55.004Z,95123.78
2023-01-25T19:51:33.441Z,95124.44
2023-01-25T19:54:04.744Z,95121.34
2023-01-25T19:56:37.611Z,95125.09
2023-01-25T19:59:06.920Z,95125.75
2023-01-25T20:01:36.689Z,95108.56
2023-01-25T20:04:06.165Z,95117.63
2023-01-25T20:06:33.126Z,95103.47
2023-01-25T20:08:59.971Z,95114.38
2023-01-25T20:11:30.153Z,95105.69
2023-01-25T20:14:01.283Z,95094.97
2023-01-25T20:16:28.965Z,95101.38
2023-01-25T20:18:57.028Z,95116.97
2023-01-25T20:21:26.110Z,95121.41
2023-01-25T20:23:58.121Z,95101.09
2023-01-25T20:26:29.248Z,95078.94
2023-01-25T20:28:58.194Z,95079.56
2023-01-25T20:31:26.170Z,95104.13
2023-01-25T20:33:56.147Z,95087.44
2023-01-25T20:36:24.670Z,95101.63
2023-01-25T20:38:51.789Z,95094.44
2023-01-25T20:41:19.096Z,95096.28
2023-01-25T20:43:57.730Z,95095.53
2023-01-25T20:46:24.957Z,95085.47
2023-01-25T20:48:53.677Z,95067.28
2023-01-25T20:51:21.695Z,95082.63
2023-01-25T20:53:50.628Z,95094.25
2023-01-25T20:56:19.265Z,95079.84
2023-01-25T20:58:50.704Z,95086.69
2023-01-25T21:01:25.611Z,95078.56
2023-01-25T21:03:54.571Z,95063.22
2023-01-25T21:06:21.307Z,95059.63
2023-01-25T21:08:48.123Z,95042.19
2023-01-25T21:11:15.411Z,95054.09
2023-01-25T21:13:42.617Z,95041.91
2023-01-25T21:16:21.710Z,95058.63
2023-01-25T21:18:51.910Z,95052.72
2023-01-25T21:21:22.605Z,95049.19
2023-01-25T21:23:50.957Z,95051.78
2023-01-25T21:26:24.591Z,95044.66
2023-01-25T21:28:52.524Z,95041.78
2023-01-25T21:31:23.072Z,95043.84
2023-01-25T21:33:50.299Z,95035.81
2023-01-25T21:36:18.772Z,95038.75
2023-01-25T21:38:48.367Z,95049.19
2023-01-25T21:41:27.277Z,95047.16
2023-01-25T21:44:14.796Z,95033.88
2023-01-25T21:46:42.638Z,95048.06
2023-01-25T21:49:30.491Z,95047.06
2023-01-25T21:52:02.092Z,95037.66
2023-01-25T21:54:38.033Z,95024.16
2023-01-25T21:57:11.703Z,95025.81
2023-01-25T21:59:39.855Z,95023.16
2023-01-25T22:02:11.684Z,94995.28
2023-01-25T22:04:38.686Z,95008.56
2023-01-25T22:07:07.672Z,95004.13
2023-01-25T22:09:34.996Z,95029.31
2023-01-25T22:12:02.145Z,95020.56
2023-01-25T22:14:29.375Z,95020.00
2023-01-25T22:16:56.431Z,94978.09
2023-01-25T22:19:23.206Z,95015.38
2023-01-25T22:21:50.008Z,94996.28
2023-01-25T22:24:17.106Z,95006.16
2023-01-25T22:27:08.309Z,95005.44
2023-01-25T22:29:35.203Z,95000.53
2023-01-25T22:32:02.571Z,94988.63
2023-01-25T22:34:29.375Z,94995.81
2023-01-25T22:36:56.110Z,94988.97
2023-01-25T22:39:22.932Z,94994.56
2023-01-25T22:41:49.746Z,94986.34
2023-01-25T22:44:16.776Z,94967.03
2023-01-25T22:46:43.542Z,94975.00
2023-01-25T22:49:10.400Z,94993.25
2023-01-25T22:51:37.177Z,94965.47
2023-01-25T22:54:04.079Z,94973.63
2023-01-25T22:56:33.318Z,94984.34
2023-01-25T22:59:01.159Z,94966.63
2023-01-25T23:01:31.300Z,94965.88
2023-01-25T23:03:58.781Z,94970.22
2023-01-25T23:06:34.421Z,94944.22
2023-01-25T23:09:04.435Z,94954.28
2023-01-25T23:11:37.981Z,94961.31
2023-01-25T23:14:30.948Z,94962.47
2023-01-25T23:17:17.676Z,94950.97
2023-01-25T23:19:45.031Z,94936.31
2023-01-25T23:22:11.811Z,94945.63
2023-01-25T23:24:38.567Z,94921.28
2023-01-25T23:27:05.340Z,94933.72
2023-01-25T23:29:32.453Z,94950.63
2023-01-25T23:31:59.315Z,94950.69
2023-01-25T23:34:26.180Z,94958.91
2023-01-25T23:36:52.948Z,94952.25
2023-01-25T23:39:19.903Z,94923.84
2023-01-25T23:41:46.688Z,94948.56
2023-01-25T23:44:13.515Z,94937.34
2023-01-25T23:46:40.295Z,94930.31
2023-01-25T23:49:07.109Z,94928.47
2023-01-25T23:51:33.889Z,94933.03
2023-01-25T23:54:00.624Z,94925.50
2023-01-25T23:56:27.419Z,94914.16
2023-01-25T23:58:54.282Z,94922.34
